Time;durP1;ratioP1;P1;durP2;ratioP2;P2;SDS_P1;SDS_P2;PMS_P1;PMS_P2;Temp;Humidity;BMP_temperature;BMP_pressure;BME280_temperature;BME280_humidity;BME280_pressure;Samples;Min_cycle;Max_cycle;Signal;HPM_P1;HPM_P2
2024/01/06 00:01:43;;;;;;;7.70;3.30;;;;;;;-2.89;100.00;100393.58;104648;1258;69652;-55
2024/01/06 00:04:11;;;;;;;8.50;3.40;;;;;;;-2.90;100.00;100394.06;104903;1257;71519;-53
2024/01/06 00:06:38;;;;;;;6.10;2.90;;;;;;;-2.92;100.00;100404.23;104983;1255;60442;-55
2024/01/06 00:09:06;;;;;;;7.60;2.90;;;;;;;-2.94;100.00;100403.31;104915;1254;60671;-57
2024/01/06 00:11:33;;;;;;;4.70;1.70;;;;;;;-2.93;100.00;100402.97;105982;1254;73923;-55
2024/01/06 00:14:00;;;;;;;3.60;1.50;;;;;;;-2.92;100.00;100402.82;104742;1254;67095;-55
2024/01/06 00:16:28;;;;;;;2.60;1.40;;;;;;;-2.91;100.00;100400.56;104712;1259;71632;-58
2024/01/06 00:18:55;;;;;;;6.40;1.90;;;;;;;-2.88;100.00;100397.43;104772;1257;61873;-55
2024/01/06 00:21:23;;;;;;;2.70;1.00;;;;;;;-2.84;100.00;100406.83;105125;1257;60617;-58
2024/01/06 00:23:50;;;;;;;3.50;1.10;;;;;;;-2.77;100.00;100417.45;104790;1255;73921;-57
2024/01/06 00:26:18;;;;;;;4.10;1.60;;;;;;;-2.72;100.00;100419.48;104711;1259;66128;-54
2024/01/06 00:28:47;;;;;;;2.10;1.00;;;;;;;-2.66;100.00;100417.12;104658;1257;71808;-55
2024/01/06 00:31:17;;;;;;;5.00;1.50;;;;;;;-2.60;100.00;100426.51;104582;1257;60546;-56
2024/01/06 00:33:44;;;;;;;4.50;1.20;;;;;;;-2.55;100.00;100430.80;105610;1254;60715;-56
2024/01/06 00:36:11;;;;;;;3.20;1.20;;;;;;;-2.52;100.00;100428.39;104684;1254;75836;-55
2024/01/06 00:38:39;;;;;;;3.20;1.10;;;;;;;-2.48;100.00;100442.16;104700;1254;65705;-54
2024/01/06 00:41:06;;;;;;;1.90;0.90;;;;;;;-2.44;100.00;100450.29;104788;1254;72677;-55
2024/01/06 00:43:33;;;;;;;2.50;1.30;;;;;;;-2.42;100.00;100457.89;104768;1255;60480;-54
2024/01/06 00:46:00;;;;;;;3.00;1.30;;;;;;;-2.40;100.00;100454.77;104772;1254;60460;-54
2024/01/06 00:48:28;;;;;;;2.10;0.90;;;;;;;-2.40;100.00;100441.77;104732;1258;74362;-54
2024/01/06 00:50:55;;;;;;;2.10;1.30;;;;;;;-2.39;100.00;100439.48;106122;1258;66226;-55
2024/01/06 00:53:23;;;;;;;1.50;0.80;;;;;;;-2.39;100.00;100446.70;104682;1254;73313;-56
2024/01/06 00:55:50;;;;;;;2.60;0.90;;;;;;;-2.40;100.00;100450.02;104483;1257;60564;-54
2024/01/06 00:58:17;;;;;;;1.20;0.80;;;;;;;-2.40;100.00;100447.56;104700;1259;60417;-56
2024/01/06 01:00:44;;;;;;;1.70;0.80;;;;;;;-2.40;100.00;100442.29;104732;1254;73910;-56
2024/01/06 01:03:12;;;;;;;1.20;0.80;;;;;;;-2.40;100.00;100436.13;104542;1255;65664;-54
2024/01/06 01:05:39;;;;;;;0.90;0.50;;;;;;;-2.39;100.00;100428.94;105437;1259;71275;-55
2024/01/06 01:08:07;;;;;;;0.70;0.40;;;;;;;-2.38;100.00;100426.65;104928;1255;61293;-55
2024/01/06 01:10:34;;;;;;;2.30;0.50;;;;;;;-2.35;100.00;100431.98;104898;1257;60473;-53
2024/01/06 01:13:01;;;;;;;0.90;0.40;;;;;;;-2.31;100.00;100440.48;104694;1259;72613;-54
2024/01/06 01:15:28;;;;;;;1.30;0.50;;;;;;;-2.26;100.00;100432.45;104996;1253;65689;-56
2024/01/06 01:17:56;;;;;;;2.80;0.60;;;;;;;-2.22;100.00;100429.88;108964;1257;71440;-58
2024/01/06 01:20:23;;;;;;;1.40;0.60;;;;;;;-2.17;100.00;100419.23;105552;1254;60420;-55
2024/01/06 01:22:51;;;;;;;0.90;0.50;;;;;;;-2.14;100.00;100402.38;104758;1256;60577;-55
2024/01/06 01:25:18;;;;;;;1.40;0.70;;;;;;;-2.12;100.00;100393.77;104834;1254;73869;-54
2024/01/06 01:27:45;;;;;;;0.90;0.50;;;;;;;-2.12;100.00;100388.67;104716;1254;65779;-55
2024/01/06 01:30:14;;;;;;;0.80;0.60;;;;;;;-2.11;100.00;100388.16;105305;1257;71578;-55
2024/01/06 01:32:41;;;;;;;2.70;0.60;;;;;;;-2.11;100.00;100382.71;106923;1254;60321;-55
2024/01/06 01:35:09;;;;;;;0.90;0.60;;;;;;;-2.12;100.00;100378.66;104647;1254;60548;-54
2024/01/06 01:37:36;;;;;;;1.10;0.60;;;;;;;-2.13;100.00;100380.06;104910;1253;72951;-55
2024/01/06 01:40:04;;;;;;;1.00;0.50;;;;;;;-2.15;100.00;100377.41;104868;1254;67184;-54
2024/01/06 01:42:32;;;;;;;3.30;0.60;;;;;;;-2.16;100.00;100377.56;107915;1254;72642;-56
2024/01/06 01:45:00;;;;;;;1.10;0.60;;;;;;;-2.17;100.00;100370.33;104544;1257;60660;-56
2024/01/06 01:47:27;;;;;;;1.00;0.50;;;;;;;-2.19;100.00;100367.33;104468;1254;59333;-56
2024/01/06 01:49:55;;;;;;;2.00;0.50;;;;;;;-2.20;100.00;100368.52;104860;1254;73319;-55
2024/01/06 01:52:23;;;;;;;0.90;0.40;;;;;;;-2.20;100.00;100368.17;105527;1254;65366;-54
2024/01/06 01:54:50;;;;;;;1.00;0.50;;;;;;;-2.21;100.00;100376.61;104699;1258;73773;-53
2024/01/06 01:57:18;;;;;;;2.80;0.40;;;;;;;-2.18;100.00;100379.64;105726;1253;61086;-57
2024/01/06 01:59:45;;;;;;;0.80;0.40;;;;;;;-2.14;100.00;100372.48;104922;1254;60555;-54
2024/01/06 02:02:12;;;;;;;2.00;0.50;;;;;;;-2.10;100.00;100369.88;104635;1258;74061;-55
2024/01/06 02:04:39;;;;;;;0.70;0.50;;;;;;;-2.07;100.00;100366.60;104711;1254;67631;-55
2024/01/06 02:07:07;;;;;;;2.30;0.50;;;;;;;-2.04;100.00;100376.13;104947;1259;70872;-56
2024/01/06 02:09:34;;;;;;;0.90;0.60;;;;;;;-2.01;100.00;100373.70;104819;1259;60559;-54
2024/01/06 02:12:02;;;;;;;0.80;0.50;;;;;;;-1.99;100.00;100374.79;104828;1260;60529;-54
2024/01/06 02:14:30;;;;;;;0.90;0.60;;;;;;;-1.99;100.00;100373.20;105858;1257;73920;-54
2024/01/06 02:16:58;;;;;;;0.80;0.60;;;;;;;-2.00;100.00;100364.92;109047;1254;65555;-55
2024/01/06 02:19:25;;;;;;;1.60;0.70;;;;;;;-2.00;100.00;100367.91;109059;1253;71742;-55
2024/01/06 02:21:53;;;;;;;0.90;0.50;;;;;;;-2.00;100.00;100373.36;108827;1254;59188;-55
2024/01/06 02:24:21;;;;;;;0.80;0.50;;;;;;;-2.01;100.00;100372.46;105419;1254;60533;-56
2024/01/06 02:26:48;;;;;;;1.10;0.70;;;;;;;-2.02;100.00;100376.85;109000;1254;72638;-55
2024/01/06 02:29:16;;;;;;;2.40;0.90;;;;;;;-2.02;100.00;100382.46;108996;1258;67503;-56
2024/01/06 02:31:43;;;;;;;5.30;2.00;;;;;;;-2.02;100.00;100378.61;109028;1254;72695;-57
2024/01/06 02:34:11;;;;;;;4.20;1.20;;;;;;;-2.01;100.00;100368.41;106725;1254;60444;-55
2024/01/06 02:36:38;;;;;;;2.20;0.70;;;;;;;-2.01;100.00;100352.23;105012;1253;60470;-56
2024/01/06 02:39:06;;;;;;;1.20;0.60;;;;;;;-2.01;100.00;100353.30;104826;1259;73817;-54
2024/01/06 02:41:33;;;;;;;1.20;0.90;;;;;;;-2.02;100.00;100349.23;107984;1254;66123;-56
2024/01/06 02:44:03;;;;;;;2.00;0.60;;;;;;;-2.02;100.00;100340.27;104784;1259;70482;-55
2024/01/06 02:46:30;;;;;;;1.80;0.70;;;;;;;-2.02;100.00;100339.39;104708;1254;63092;-55
2024/01/06 02:48:57;;;;;;;1.30;0.70;;;;;;;-2.01;100.00;100336.59;104848;1257;60584;-55
2024/01/06 02:51:25;;;;;;;1.00;0.70;;;;;;;-1.99;100.00;100338.91;104987;1255;72610;-55
2024/01/06 02:53:52;;;;;;;1.50;0.50;;;;;;;-1.96;100.00;100335.77;105007;1257;67551;-56
2024/01/06 02:56:20;;;;;;;1.40;0.60;;;;;;;-1.91;100.00;100337.05;104634;1259;71272;-55
2024/01/06 02:58:47;;;;;;;1.40;0.70;;;;;;;-1.88;100.00;100336.91;104865;1254;60864;-55
2024/01/06 03:01:14;;;;;;;0.70;0.50;;;;;;;-1.86;100.00;100334.98;104734;1259;60379;-56
2024/01/06 03:03:42;;;;;;;1.50;0.60;;;;;;;-1.83;100.00;100332.04;104678;1260;73795;-56
2024/01/06 03:06:09;;;;;;;1.20;0.60;;;;;;;-1.84;100.00;100331.85;105192;1258;66701;-55
2024/01/06 03:08:37;;;;;;;0.70;0.50;;;;;;;-1.84;100.00;100338.70;104915;1259;70684;-55
2024/01/06 03:11:05;;;;;;;1.90;0.50;;;;;;;-1.86;100.00;100326.02;104751;1254;60540;-56
2024/01/06 03:13:32;;;;;;;0.70;0.50;;;;;;;-1.88;100.00;100320.03;104776;1257;60747;-56
2024/01/06 03:16:05;;;;;;;1.20;0.50;;;;;;;-1.88;100.00;100320.39;104780;1260;72631;-56
2024/01/06 03:18:32;;;;;;;1.10;0.50;;;;;;;-1.91;100.00;100320.00;105407;1254;66809;-56
2024/01/06 03:21:00;;;;;;;0.80;0.50;;;;;;;-1.93;100.00;100311.88;104883;1257;72646;-56
2024/01/06 03:23:27;;;;;;;0.70;0.40;;;;;;;-1.95;100.00;100320.12;104958;1260;60568;-56
2024/01/06 03:25:54;;;;;;;1.10;0.60;;;;;;;-1.96;100.00;100319.60;104991;1254;60534;-55
2024/01/06 03:28:21;;;;;;;0.70;0.50;;;;;;;-1.99;100.00;100319.04;104805;1259;74316;-55
2024/01/06 03:30:49;;;;;;;0.60;0.40;;;;;;;-2.01;100.00;100319.88;104976;1254;65490;-55
2024/01/06 03:33:16;;;;;;;1.70;0.50;;;;;;;-2.02;100.00;100314.23;106020;1259;72428;-54
2024/01/06 03:35:44;;;;;;;0.70;0.50;;;;;;;-2.01;100.00;100309.68;104940;1257;60658;-55
2024/01/06 03:38:11;;;;;;;0.70;0.40;;;;;;;-1.98;100.00;100309.73;104887;1258;60414;-56
2024/01/06 03:40:38;;;;;;;0.70;0.40;;;;;;;-1.95;100.00;100307.11;104847;1254;73921;-55
2024/01/06 03:43:05;;;;;;;0.70;0.50;;;;;;;-1.90;100.00;100313.33;104890;1254;64843;-55
2024/01/06 03:45:33;;;;;;;0.80;0.50;;;;;;;-1.87;100.00;100323.21;104892;1257;72670;-55
2024/01/06 03:48:00;;;;;;;0.80;0.40;;;;;;;-1.83;100.00;100327.12;104957;1257;60599;-55
2024/01/06 03:50:28;;;;;;;1.10;0.60;;;;;;;-1.79;100.00;100315.38;104877;1257;61849;-54
2024/01/06 03:52:55;;;;;;;1.10;0.50;;;;;;;-1.76;100.00;100310.65;104912;1257;74733;-55
2024/01/06 03:55:22;;;;;;;2.80;0.50;;;;;;;-1.74;100.00;100324.74;104809;1254;67427;-56
2024/01/06 03:57:49;;;;;;;0.60;0.40;;;;;;;-1.74;100.00;100331.27;104560;1254;73067;-56
2024/01/06 04:00:17;;;;;;;0.70;0.50;;;;;;;-1.74;100.00;100324.59;104708;1259;60588;-56
2024/01/06 04:02:45;;;;;;;1.00;0.50;;;;;;;-1.74;100.00;100321.06;105144;1254;60639;-56
2024/01/06 04:05:12;;;;;;;0.70;0.50;;;;;;;-1.75;100.00;100333.02;104894;1257;73862;-55
2024/01/06 04:07:40;;;;;;;1.10;0.50;;;;;;;-1.76;100.00;100341.61;104855;1257;66902;-56
2024/01/06 04:10:07;;;;;;;1.40;0.50;;;;;;;-1.76;100.00;100339.14;104890;1254;71889;-56
2024/01/06 04:12:35;;;;;;;1.50;0.40;;;;;;;-1.78;100.00;100326.29;104792;1258;61823;-57
2024/01/06 04:15:03;;;;;;;0.50;0.50;;;;;;;-1.80;100.00;100321.19;104929;1257;60435;-56
2024/01/06 04:17:30;;;;;;;0.90;0.50;;;;;;;-1.82;100.00;100305.84;104900;1257;72410;-56
2024/01/06 04:19:58;;;;;;;0.70;0.50;;;;;;;-1.83;100.00;100299.33;104739;1254;65642;-56
2024/01/06 04:22:25;;;;;;;0.70;0.50;;;;;;;-1.83;100.00;100293.86;104855;1257;71434;-55
2024/01/06 04:24:52;;;;;;;0.70;0.40;;;;;;;-1.81;100.00;100288.09;104756;1255;61211;-55
2024/01/06 04:27:20;;;;;;;0.70;0.40;;;;;;;-1.79;100.00;100291.10;104989;1257;60440;-56
2024/01/06 04:29:48;;;;;;;0.70;0.40;;;;;;;-1.76;100.00;100290.42;104784;1255;71685;-53
2024/01/06 04:32:15;;;;;;;0.90;0.50;;;;;;;-1.73;100.00;100290.63;104740;1254;67005;-56
2024/01/06 04:34:42;;;;;;;1.30;0.60;;;;;;;-1.70;100.00;100293.64;104669;1257;72641;-56
2024/01/06 04:37:10;;;;;;;0.80;0.50;;;;;;;-1.69;100.00;100293.65;104751;1254;61943;-56
2024/01/06 04:39:38;;;;;;;0.50;0.40;;;;;;;-1.68;100.00;100292.77;104952;1257;60625;-54
2024/01/06 04:42:05;;;;;;;0.80;0.50;;;;;;;-1.68;100.00;100300.52;105034;1254;73706;-55
2024/01/06 04:44:33;;;;;;;0.90;0.60;;;;;;;-1.69;100.00;100306.48;104647;1257;67332;-55
2024/01/06 04:47:00;;;;;;;2.90;0.40;;;;;;;-1.70;100.00;100309.83;104921;1259;75124;-56
2024/01/06 04:49:27;;;;;;;1.00;0.60;;;;;;;-1.72;100.00;100301.91;104923;1260;60357;-56
2024/01/06 04:51:55;;;;;;;0.80;0.60;;;;;;;-1.73;100.00;100297.33;104964;1260;60650;-55
2024/01/06 04:54:23;;;;;;;0.70;0.50;;;;;;;-1.75;100.00;100289.55;105170;1257;72939;-56
2024/01/06 04:56:50;;;;;;;1.10;0.60;;;;;;;-1.77;100.00;100290.76;105168;1260;66965;-56
2024/01/06 04:59:17;;;;;;;1.40;0.50;;;;;;;-1.78;100.00;100302.71;104943;1260;71370;-56
2024/01/06 05:01:45;;;;;;;0.80;0.50;;;;;;;-1.79;100.00;100303.77;104855;1257;60555;-56
2024/01/06 05:04:12;;;;;;;0.80;0.60;;;;;;;-1.81;100.00;100300.94;104853;1251;60489;-56
2024/01/06 05:06:39;;;;;;;1.30;0.70;;;;;;;-1.82;100.00;100290.89;108980;1251;72391;-56
2024/01/06 05:09:07;;;;;;;0.70;0.60;;;;;;;-1.83;100.00;100287.01;105473;1257;67386;-56
2024/01/06 05:11:34;;;;;;;0.90;0.60;;;;;;;-1.82;100.00;100288.42;104899;1253;72720;-56
2024/01/06 05:14:02;;;;;;;0.60;0.40;;;;;;;-1.80;100.00;100293.38;105007;1257;60555;-56
2024/01/06 05:16:29;;;;;;;0.80;0.50;;;;;;;-1.77;100.00;100289.35;104859;1257;60533;-56
2024/01/06 05:18:56;;;;;;;1.80;0.50;;;;;;;-1.74;100.00;100287.80;104915;1256;73930;-56
2024/01/06 05:21:24;;;;;;;1.00;0.60;;;;;;;-1.70;100.00;100289.42;104872;1259;66357;-55
2024/01/06 05:23:51;;;;;;;1.10;0.70;;;;;;;-1.67;100.00;100297.18;104987;1251;70956;-55
2024/01/06 05:26:18;;;;;;;1.00;0.70;;;;;;;-1.64;100.00;100300.56;104932;1256;60467;-56
2024/01/06 05:28:46;;;;;;;0.80;0.60;;;;;;;-1.62;100.00;100296.38;104984;1254;61143;-55
2024/01/06 05:31:13;;;;;;;1.10;0.60;;;;;;;-1.61;100.00;100288.98;108851;1254;152563;-56
2024/01/06 05:34:30;;;;;;;1.20;0.60;;;;;;;-1.60;100.00;100361.33;101912;1294;601262;-55
2024/01/06 05:36:57;;;;;;;1.10;0.70;;;;;;;-1.62;100.00;100373.45;103988;1272;59355;-56
2024/01/06 05:39:25;;;;;;;1.00;0.60;;;;;;;-1.63;100.00;100355.86;103786;1267;59202;-55
2024/01/06 05:41:53;;;;;;;2.80;0.70;;;;;;;-1.64;100.00;100351.08;104386;1260;72910;-55
2024/01/06 05:44:20;;;;;;;1.30;0.80;;;;;;;-1.67;100.00;100337.66;104599;1262;65734;-56
2024/01/06 05:46:47;;;;;;;0.80;0.50;;;;;;;-1.68;100.00;100328.33;104468;1257;73480;-56
2024/01/06 05:49:15;;;;;;;1.00;0.60;;;;;;;-1.68;100.00;100328.33;104312;1253;316481;-55
2024/01/06 05:51:45;;;;;;;0.70;0.50;;;;;;;-1.67;100.00;100322.71;105997;1258;60153;-55
2024/01/06 05:54:13;;;;;;;1.50;0.60;;;;;;;-1.64;100.00;100317.12;104816;1252;71059;-56
2024/01/06 05:56:41;;;;;;;0.80;0.70;;;;;;;-1.62;100.00;100320.13;104795;1253;66186;-55
2024/01/06 05:59:08;;;;;;;0.90;0.60;;;;;;;-1.59;100.00;100318.73;104656;1255;71447;-56
2024/01/06 06:01:35;;;;;;;0.80;0.60;;;;;;;-1.56;100.00;100310.15;104557;1259;59838;-56
2024/01/06 06:04:03;;;;;;;0.90;0.70;;;;;;;-1.56;100.00;100310.50;104825;1253;60471;-57
2024/01/06 06:06:30;;;;;;;1.30;0.90;;;;;;;-1.57;100.00;100310.84;106142;1257;71902;-56
2024/01/06 06:08:58;;;;;;;2.50;0.90;;;;;;;-1.58;100.00;100304.48;104863;1260;65772;-56
2024/01/06 06:11:25;;;;;;;1.50;0.80;;;;;;;-1.58;100.00;100294.63;104758;1254;71474;-56
2024/01/06 06:13:53;;;;;;;1.40;0.70;;;;;;;-1.59;100.00;100282.13;104739;1254;59647;-57
2024/01/06 06:16:20;;;;;;;1.30;0.70;;;;;;;-1.60;100.00;100264.33;104675;1254;61122;-56
2024/01/06 06:18:47;;;;;;;3.10;0.70;;;;;;;-1.61;100.00;100256.59;104861;1256;73951;-56
2024/01/06 06:21:14;;;;;;;1.50;1.10;;;;;;;-1.61;100.00;100248.14;104517;1254;67465;-51
2024/01/06 06:23:42;;;;;;;1.40;0.60;;;;;;;-1.60;100.00;100252.20;104628;1254;73205;-56
2024/01/06 06:26:09;;;;;;;1.10;0.80;;;;;;;-1.58;100.00;100252.23;104679;1254;59863;-56
2024/01/06 06:28:37;;;;;;;2.70;1.10;;;;;;;-1.55;100.00;100247.52;104622;1254;59759;-56
2024/01/06 06:31:04;;;;;;;1.40;0.90;;;;;;;-1.52;100.00;100246.45;104713;1254;71413;-56
2024/01/06 06:33:33;;;;;;;1.20;0.80;;;;;;;-1.50;100.00;100239.44;104595;1255;66810;-55
2024/01/06 06:36:04;;;;;;;1.50;0.80;;;;;;;-1.49;100.00;100247.73;105215;1260;71788;-55
2024/01/06 06:38:31;;;;;;;1.70;0.80;;;;;;;-1.49;100.00;100246.66;104555;1258;59765;-55
2024/01/06 06:40:59;;;;;;;1.10;0.80;;;;;;;-1.50;100.00;100244.36;104855;1255;61033;-56
2024/01/06 06:43:26;;;;;;;2.60;1.00;;;;;;;-1.49;100.00;100232.23;104579;1253;73089;-56
2024/01/06 06:45:55;;;;;;;1.60;0.90;;;;;;;-1.48;100.00;100226.96;105651;1254;65754;-55
2024/01/06 06:48:23;;;;;;;1.10;1.00;;;;;;;-1.46;100.00;100230.16;105570;1258;70614;-52
2024/01/06 06:50:50;;;;;;;1.20;0.80;;;;;;;-1.43;100.00;100232.09;106516;1259;59725;-57
2024/01/06 06:53:17;;;;;;;1.50;1.00;;;;;;;-1.40;100.00;100224.38;104667;1254;60013;-53
2024/01/06 06:55:45;;;;;;;3.20;1.40;;;;;;;-1.37;100.00;100217.71;104725;1254;73116;-54
2024/01/06 06:58:12;;;;;;;1.50;0.90;;;;;;;-1.34;100.00;100215.60;104709;1253;67679;-55
2024/01/06 07:00:40;;;;;;;2.40;1.10;;;;;;;-1.32;100.00;100214.39;104485;1254;73184;-56
2024/01/06 07:03:07;;;;;;;3.00;1.30;;;;;;;-1.31;100.00;100226.20;105511;1259;59646;-56
2024/01/06 07:05:35;;;;;;;1.80;1.50;;;;;;;-1.29;100.00;100238.73;104904;1254;60006;-54
2024/01/06 07:08:02;;;;;;;1.60;1.30;;;;;;;-1.29;100.00;100240.31;104679;1256;73635;-55
2024/01/06 07:10:30;;;;;;;2.60;1.70;;;;;;;-1.26;100.00;100248.77;104793;1254;66155;-54
2024/01/06 07:12:57;;;;;;;3.70;1.40;;;;;;;-1.23;100.00;100251.98;104721;1255;72652;-54
2024/01/06 07:15:24;;;;;;;2.10;1.30;;;;;;;-1.18;100.00;100257.98;104654;1256;59633;-53
2024/01/06 07:17:52;;;;;;;1.50;1.20;;;;;;;-1.13;100.00;100262.08;105432;1254;60694;-54
2024/01/06 07:20:19;;;;;;;1.90;1.40;;;;;;;-1.09;100.00;100260.68;104874;1254;71924;-54
2024/01/06 07:22:47;;;;;;;2.10;1.30;;;;;;;-1.05;100.00;100261.96;104777;1254;65926;-54
2024/01/06 07:25:14;;;;;;;1.80;1.30;;;;;;;-1.00;100.00;100261.80;104679;1253;72747;-55
2024/01/06 07:27:42;;;;;;;2.20;1.50;;;;;;;-0.97;100.00;100261.84;104522;1256;59906;-55
2024/01/06 07:30:10;;;;;;;2.80;1.20;;;;;;;-0.93;100.00;100263.97;106054;1259;60015;-55
2024/01/06 07:32:37;;;;;;;2.10;1.40;;;;;;;-0.91;100.00;100263.61;104775;1254;71849;-56
2024/01/06 07:35:05;;;;;;;5.50;1.20;;;;;;;-0.88;100.00;100263.13;104783;1258;65800;-55
2024/01/06 07:37:34;;;;;;;3.00;1.10;;;;;;;-0.85;100.00;100263.13;107937;1254;72894;-56
2024/01/06 07:40:02;;;;;;;3.30;1.40;;;;;;;-0.82;100.00;100267.56;104747;1256;59786;-55
2024/01/06 07:42:31;;;;;;;2.90;1.30;;;;;;;-0.77;100.00;100268.11;104615;1254;59830;-55
2024/01/06 07:44:59;;;;;;;2.00;1.50;;;;;;;-0.72;100.00;100271.84;105301;1254;72238;-55
2024/01/06 07:47:26;;;;;;;2.60;1.20;;;;;;;-0.68;100.00;100272.39;104695;1258;67383;-55
2024/01/06 07:49:57;;;;;;;3.40;1.60;;;;;;;-0.64;100.00;100269.41;104703;1254;71443;-56
2024/01/06 07:52:25;;;;;;;3.90;2.30;;;;;;;-0.61;100.00;100264.33;105974;1255;60559;-56
2024/01/06 07:54:52;;;;;;;3.50;1.80;;;;;;;-0.59;100.00;100256.73;104723;1254;60534;-55
2024/01/06 07:57:20;;;;;;;2.00;1.20;;;;;;;-0.58;100.00;100257.27;104758;1258;73975;-56
2024/01/06 07:59:47;;;;;;;2.90;1.90;;;;;;;-0.57;100.00;100248.11;104876;1259;65650;-55
2024/01/06 08:02:15;;;;;;;2.20;1.30;;;;;;;-0.55;100.00;100241.60;104683;1253;73296;-55
2024/01/06 08:04:43;;;;;;;3.30;1.70;;;;;;;-0.52;100.00;100243.04;104682;1258;61641;-55
2024/01/06 08:07:10;;;;;;;3.60;1.70;;;;;;;-0.49;100.00;100239.68;104656;1258;59811;-56
2024/01/06 08:09:38;;;;;;;2.80;1.40;;;;;;;-0.44;100.00;100243.41;104644;1254;73543;-55
2024/01/06 08:12:08;;;;;;;4.30;1.80;;;;;;;-0.41;100.00;100240.42;104780;1259;65657;-55
2024/01/06 08:14:35;;;;;;;3.60;1.80;;;;;;;-0.37;100.00;100245.91;104686;1254;71262;-55
2024/01/06 08:17:02;;;;;;;4.00;2.50;;;;;;;-0.34;100.00;100244.33;104552;1258;59765;-56
2024/01/06 08:19:32;;;;;;;3.20;1.90;;;;;;;-0.33;100.00;100245.20;104724;1254;59735;-54
2024/01/06 08:21:59;;;;;;;2.10;1.40;;;;;;;-0.32;100.00;100246.62;108904;1253;72172;-55
2024/01/06 08:24:27;;;;;;;3.80;2.00;;;;;;;-0.31;100.00;100251.39;108843;1254;67534;-56
2024/01/06 08:26:54;;;;;;;2.50;1.80;;;;;;;-0.31;100.00;100250.86;108868;1254;72748;-56
2024/01/06 08:29:22;;;;;;;2.70;2.20;;;;;;;-0.30;100.00;100250.34;108728;1254;58474;-55
2024/01/06 08:31:51;;;;;;;3.80;1.90;;;;;;;-0.27;100.00;100252.81;109009;1254;62237;-55
2024/01/06 08:34:19;;;;;;;2.80;1.20;;;;;;;-0.23;100.00;100258.30;108073;1258;74181;-54
2024/01/06 08:36:48;;;;;;;3.00;1.40;;;;;;;-0.19;100.00;100260.27;105262;1254;69365;-54
2024/01/06 08:39:16;;;;;;;3.30;1.70;;;;;;;-0.15;100.00;100260.61;108810;1254;72630;-54
2024/01/06 08:41:44;;;;;;;2.80;1.40;;;;;;;-0.13;100.00;100266.79;108852;1254;59291;-54
2024/01/06 08:44:11;;;;;;;2.60;1.70;;;;;;;-0.09;100.00;100274.05;108717;1254;61059;-55
2024/01/06 08:46:39;;;;;;;3.00;1.50;;;;;;;-0.05;100.00;100273.16;108708;1253;71858;-54
2024/01/06 08:49:06;;;;;;;2.60;1.70;;;;;;;-0.02;100.00;100272.30;108860;1254;67912;-55
2024/01/06 08:51:35;;;;;;;3.20;2.60;;;;;;;-0.01;100.00;100265.08;108597;1256;73143;-53
2024/01/06 08:54:06;;;;;;;3.90;2.20;;;;;;;0.00;100.00;100273.36;105595;1254;60251;-53
2024/01/06 08:56:33;;;;;;;2.40;1.50;;;;;;;0.01;100.00;100274.94;104824;1254;59640;-56
2024/01/06 08:59:01;;;;;;;3.20;2.50;;;;;;;0.01;100.00;100277.40;104810;1256;70903;-56
2024/01/06 09:01:28;;;;;;;3.00;1.80;;;;;;;0.02;100.00;100281.29;104806;1259;67320;-56
2024/01/06 09:03:56;;;;;;;2.80;1.70;;;;;;;0.02;100.00;100273.17;104683;1256;71453;-54
2024/01/06 09:06:23;;;;;;;3.20;2.00;;;;;;;0.04;100.00;100264.02;104675;1253;60924;-54
2024/01/06 09:08:51;;;;;;;2.40;1.70;;;;;;;0.07;100.00;100263.49;104669;1256;60103;-54
2024/01/06 09:11:18;;;;;;;5.30;2.10;;;;;;;0.09;100.00;100270.35;104628;1256;72550;-54
2024/01/06 09:13:45;;;;;;;3.10;1.80;;;;;;;0.12;100.00;100277.27;104704;1254;65999;-55
2024/01/06 09:16:12;;;;;;;2.30;1.70;;;;;;;0.15;100.00;100277.28;104669;1259;72969;-54
2024/01/06 09:18:40;;;;;;;3.30;2.10;;;;;;;0.18;100.00;100271.09;104699;1254;59914;-55
2024/01/06 09:21:07;;;;;;;3.70;2.50;;;;;;;0.20;100.00;100264.39;104905;1260;59684;-54
2024/01/06 09:23:35;;;;;;;5.00;3.90;;;;;;;0.21;100.00;100252.23;104545;1254;72581;-53
2024/01/06 09:26:02;;;;;;;7.20;4.00;;;;;;;0.21;100.00;100241.63;104770;1254;66911;-54
2024/01/06 09:28:30;;;;;;;5.80;4.20;;;;;;;0.21;100.00;100243.75;104766;1258;70517;-54
2024/01/06 09:30:57;;;;;;;60.90;34.80;;;;;;;0.20;100.00;100244.45;104885;1256;60122;-54
2024/01/06 09:33:25;;;;;;;22.20;13.80;;;;;;;0.19;100.00;100253.09;105274;1254;59687;-53
2024/01/06 09:35:53;;;;;;;44.90;22.30;;;;;;;0.18;100.00;100249.56;105009;1258;73607;-52
2024/01/06 09:38:20;;;;;;;20.50;10.40;;;;;;;0.17;100.00;100229.98;104748;1256;65641;-52
2024/01/06 09:40:47;;;;;;;6.40;3.60;;;;;;;0.15;100.00;100212.34;104642;1258;71453;-54
2024/01/06 09:43:15;;;;;;;73.60;29.70;;;;;;;0.15;100.00;100215.86;104581;1256;61761;-53
2024/01/06 09:45:43;;;;;;;19.30;7.60;;;;;;;0.17;100.00;100219.58;104972;1260;60426;-53
2024/01/06 09:48:15;;;;;;;41.60;18.80;;;;;;;0.19;100.00;100217.44;104960;1254;74463;-53
2024/01/06 09:50:44;;;;;;;31.00;15.60;;;;;;;0.23;100.00;100220.64;105075;1254;65675;-54
2024/01/06 09:53:12;;;;;;;14.90;8.40;;;;;;;0.26;100.00;100225.73;105133;1259;72900;-52
2024/01/06 09:55:39;;;;;;;158.40;82.80;;;;;;;0.28;100.00;100223.63;104684;1257;60550;-53
2024/01/06 09:58:07;;;;;;;99.50;48.30;;;;;;;0.29;100.00;100223.27;104883;1254;60979;-53
2024/01/06 10:00:34;;;;;;;88.20;41.70;;;;;;;0.30;100.00;100219.05;105185;1253;72686;-53
2024/01/06 10:03:02;;;;;;;32.70;17.00;;;;;;;0.31;100.00;100205.64;104700;1254;67223;-54
2024/01/06 10:05:30;;;;;;;9.90;5.60;;;;;;;0.33;100.00;100198.58;104664;1254;73553;-53
2024/01/06 10:07:58;;;;;;;10.20;7.50;;;;;;;0.33;100.00;100194.88;105325;1254;60388;-53
2024/01/06 10:10:26;;;;;;;6.40;5.20;;;;;;;0.33;100.00;100187.29;107463;1253;60533;-54
2024/01/06 10:12:55;;;;;;;6.30;3.40;;;;;;;0.33;100.00;100181.11;104711;1262;73945;-54
2024/01/06 10:15:22;;;;;;;34.20;23.80;;;;;;;0.34;100.00;100186.92;105084;1254;65777;-55
2024/01/06 10:17:50;;;;;;;14.80;11.10;;;;;;;0.35;100.00;100189.38;104493;1256;71438;-54
2024/01/06 10:20:18;;;;;;;22.00;15.10;;;;;;;0.36;100.00;100183.38;104425;1256;62665;-54
2024/01/06 10:22:45;;;;;;;24.60;9.30;;;;;;;0.39;100.00;100184.27;104744;1254;60611;-54
2024/01/06 10:25:13;;;;;;;68.10;36.90;;;;;;;0.42;100.00;100191.34;105490;1261;73827;-53
2024/01/06 10:27:41;;;;;;;88.10;48.20;;;;;;;0.46;100.00;100195.20;107166;1254;65983;-53
2024/01/06 10:30:09;;;;;;;64.20;31.80;;;;;;;0.49;100.00;100193.45;105699;1256;71476;-54
2024/01/06 10:32:37;;;;;;;119.70;65.00;;;;;;;0.51;100.00;100188.33;104649;1256;61008;-54
2024/01/06 10:35:06;;;;;;;52.10;32.30;;;;;;;0.53;100.00;100176.83;106368;1254;60754;-53
2024/01/06 10:37:34;;;;;;;37.10;23.50;;;;;;;0.55;100.00;100170.84;104865;1254;72569;-54
2024/01/06 10:40:06;;;;;;;20.40;12.20;;;;;;;0.55;100.00;100172.95;104525;1255;66036;-54
2024/01/06 10:42:34;;;;;;;18.70;10.20;;;;;;;0.56;100.00;100169.96;104510;1257;71591;-54
2024/01/06 10:45:02;;;;;;;26.80;13.50;;;;;;;0.57;100.00;100164.48;105061;1260;61098;-54
2024/01/06 10:47:31;;;;;;;27.00;19.10;;;;;;;0.58;100.00;100159.71;104840;1258;60474;-55
2024/01/06 10:49:59;;;;;;;5.60;4.90;;;;;;;0.59;100.00;100155.30;104388;1260;73945;-55
2024/01/06 10:52:28;;;;;;;6.00;4.20;;;;;;;0.61;100.00;100159.86;104568;1260;65773;-55
2024/01/06 10:54:56;;;;;;;5.20;3.20;;;;;;;0.64;100.00;100158.27;104595;1258;72146;-54
2024/01/06 10:57:24;;;;;;;4.20;3.60;;;;;;;0.66;100.00;100147.16;106752;1258;59957;-54
2024/01/06 10:59:52;;;;;;;4.60;3.00;;;;;;;0.69;100.00;100146.77;104841;1259;60505;-54
2024/01/06 11:02:19;;;;;;;5.30;3.60;;;;;;;0.69;100.00;100135.48;104817;1258;73794;-53
2024/01/06 11:04:48;;;;;;;4.80;3.40;;;;;;;0.70;100.00;100126.83;104740;1254;66213;-53
2024/01/06 11:07:19;;;;;;;3.00;2.80;;;;;;;0.71;100.00;100123.64;108862;1254;73130;-54
2024/01/06 11:09:58;;;;;;;3.50;3.20;;;;;;;0.72;100.00;100123.11;105755;1258;61151;-56
2024/01/06 11:12:28;;;;;;;4.00;3.00;;;;;;;0.74;100.00;100131.41;108903;1254;58849;-54